createdAt,value
2023-03-08T00:03:57.413Z,1.10
2023-03-08T00:09:02.602Z,1.50
2023-03-08T00:14:05.629Z,0.82
2023-03-08T00:19:08.771Z,0.90
2023-03-08T00:24:16.872Z,1.13
2023-03-08T00:29:20.379Z,1.02
2023-03-08T00:34:24.578Z,1.08
2023-03-08T00:39:28.498Z,0.95
2023-03-08T00:44:32.623Z,1.20
2023-03-08T00:49:36.081Z,0.90
2023-03-08T00:54:39.245Z,0.90
2023-03-08T00:59:42.849Z,0.65
2023-03-08T01:04:47.240Z,0.88
2023-03-08T01:09:50.398Z,0.93
2023-03-08T01:14:54.175Z,0.85
2023-03-08T01:19:58.110Z,0.90
2023-03-08T01:25:01.181Z,0.50
2023-03-08T01:30:05.173Z,0.88
2023-03-08T01:35:09.073Z,0.75
2023-03-08T01:40:18.964Z,1.00
2023-03-08T01:46:17.377Z,0.80
2023-03-08T01:51:30.787Z,0.63
2023-03-08T01:56:36.218Z,0.82
2023-03-08T02:01:41.425Z,0.63
2023-03-08T02:06:45.711Z,0.80
2023-03-08T02:11:54.644Z,0.57
2023-03-08T02:16:57.808Z,0.40
2023-03-08T02:22:09.161Z,0.80
2023-03-08T02:27:22.880Z,0.68
2023-03-08T02:32:29.045Z,0.60
2023-03-08T02:37:37.974Z,0.60
2023-03-08T02:42:41.274Z,0.77
2023-03-08T02:47:44.358Z,0.68
2023-03-08T02:52:48.222Z,0.75
2023-03-08T02:57:51.419Z,0.68
2023-03-08T03:02:56.057Z,0.38
2023-03-08T03:07:59.458Z,0.68
2023-03-08T03:13:06.863Z,0.70
2023-03-08T03:18:10.774Z,0.43
2023-03-08T03:23:14.726Z,0.75
2023-03-08T03:28:25.246Z,0.47
2023-03-08T03:33:28.833Z,0.65
2023-03-08T03:38:32.701Z,0.55
2023-03-08T03:43:37.252Z,0.55
2023-03-08T03:48:45.110Z,0.60
2023-03-08T03:53:50.323Z,0.52
2023-03-08T03:58:55.888Z,0.60
2023-03-08T04:04:01.166Z,0.63
2023-03-08T04:09:11.697Z,0.63
2023-03-08T04:14:15.638Z,0.50
2023-03-08T04:19:20.173Z,0.50
2023-03-08T04:24:28.853Z,0.70
2023-03-08T04:29:37.715Z,0.77
2023-03-08T04:34:43.230Z,0.43
2023-03-08T04:44:53.317Z,0.70
2023-03-08T04:50:00.502Z,0.80
2023-03-08T04:55:06.896Z,0.60
2023-03-08T05:00:11.735Z,0.98
2023-03-08T05:05:17.405Z,0.80
2023-03-08T05:10:21.209Z,0.63
2023-03-08T05:15:24.952Z,0.90
2023-03-08T05:20:28.178Z,0.82
2023-03-08T05:25:31.885Z,0.68
2023-03-08T05:30:36.214Z,0.90
2023-03-08T05:35:39.954Z,0.85
2023-03-08T05:40:44.761Z,0.90
2023-03-08T05:45:59.408Z,1.27
2023-03-08T05:51:09.931Z,1.33
2023-03-08T05:56:16.866Z,1.10
2023-03-08T06:01:28.796Z,0.68
2023-03-08T06:06:39.629Z,1.10
2023-03-08T06:11:44.418Z,1.00
2023-03-08T06:16:49.201Z,0.90
2023-03-08T06:21:55.407Z,0.90
2023-03-08T06:27:00.191Z,0.70
2023-03-08T06:32:04.824Z,0.77
2023-03-08T06:37:09.118Z,0.93
2023-03-08T06:42:12.499Z,1.10
2023-03-08T06:47:16.553Z,0.70
2023-03-08T06:52:19.838Z,0.80
2023-03-08T06:57:24.428Z,0.50
2023-03-08T07:02:27.694Z,0.40
2023-03-08T07:07:30.911Z,0.50
2023-03-08T07:12:36.924Z,0.22
2023-03-08T07:17:40.569Z,0.20
2023-03-08T07:22:44.998Z,0.30
2023-03-08T07:27:48.360Z,0.40
2023-03-08T07:32:54.133Z,3.03
2023-03-08T07:37:57.910Z,0.40
2023-03-08T07:43:01.389Z,0.47
2023-03-08T07:48:12.640Z,0.55
2023-03-08T07:53:15.871Z,0.70
2023-03-08T07:58:19.448Z,0.60
2023-03-08T08:03:22.860Z,1.00
2023-03-08T08:08:26.484Z,0.55
2023-03-08T08:13:30.095Z,1.02
2023-03-08T08:18:34.158Z,0.85
2023-03-08T08:23:37.886Z,1.10
2023-03-08T08:28:43.071Z,1.27
2023-03-08T08:33:46.195Z,1.00
2023-03-08T08:38:50.832Z,1.10
2023-03-08T08:43:56.959Z,1.00
2023-03-08T08:49:01.018Z,2.42
2023-03-08T08:54:04.866Z,4.03
2023-03-08T08:59:10.566Z,3.40
2023-03-08T09:04:14.936Z,2.63
2023-03-08T09:09:19.200Z,2.55
2023-03-08T09:14:22.465Z,3.28
2023-03-08T09:19:26.079Z,2.40
2023-03-08T09:24:29.675Z,3.15
2023-03-08T09:29:34.204Z,2.90
2023-03-08T09:34:37.885Z,3.90
2023-03-08T09:39:41.685Z,3.35
2023-03-08T09:45:08.977Z,2.60
2023-03-08T09:50:12.101Z,2.55
2023-03-08T09:55:28.545Z,3.03
2023-03-08T10:00:37.656Z,2.88
2023-03-08T10:05:51.284Z,2.75
2023-03-08T10:11:12.595Z,2.67
2023-03-08T10:16:36.558Z,2.63
2023-03-08T10:21:43.612Z,2.40
2023-03-08T10:26:47.291Z,2.13
2023-03-08T10:31:50.575Z,2.33
2023-03-08T10:37:01.069Z,1.80
2023-03-08T10:42:15.844Z,2.10
2023-03-08T10:47:24.482Z,2.08
2023-03-08T10:52:28.784Z,2.30
2023-03-08T10:57:33.369Z,1.85
2023-03-08T11:02:36.598Z,2.08
2023-03-08T11:07:51.414Z,2.20
2023-03-08T11:13:12.333Z,1.85
2023-03-08T11:18:45.380Z,2.22
2023-03-08T11:24:26.364Z,2.30
2023-03-08T11:30:23.423Z,2.10
2023-03-08T11:35:41.435Z,2.27
2023-03-08T11:41:06.153Z,2.30
2023-03-08T11:46:17.902Z,2.40
2023-03-08T11:51:47.556Z,2.33
2023-03-08T11:56:55.536Z,2.60
2023-03-08T12:02:11.917Z,2.33
2023-03-08T12:07:32.822Z,2.97
2023-03-08T12:12:42.585Z,2.35
2023-03-08T12:17:53.413Z,2.00
2023-03-08T12:23:26.414Z,2.40
2023-03-08T12:28:37.326Z,2.30
2023-03-08T12:33:41.098Z,2.10
2023-03-08T12:38:47.391Z,2.40
2023-03-08T12:44:22.533Z,3.03
2023-03-08T12:49:40.639Z,2.10
2023-03-08T12:55:10.372Z,2.03
2023-03-08T13:00:36.040Z,2.70
2023-03-08T13:05:41.196Z,2.43
2023-03-08T13:10:53.194Z,2.03
2023-03-08T13:16:16.005Z,2.22
2023-03-08T13:21:41.856Z,1.95
2023-03-08T13:27:38.074Z,2.60
2023-03-08T13:32:41.450Z,2.20
2023-03-08T13:37:56.998Z,1.80
2023-03-08T13:43:08.761Z,2.17
2023-03-08T13:48:13.659Z,1.95
2023-03-08T13:53:36.248Z,1.83
2023-03-08T13:58:45.934Z,1.85
2023-03-08T14:03:51.471Z,1.48
2023-03-08T14:08:59.659Z,1.42
2023-03-08T14:14:07.511Z,1.55
2023-03-08T14:19:19.805Z,1.77
2023-03-08T14:24:27.730Z,1.70
2023-03-08T14:29:34.846Z,1.80
2023-03-08T14:34:44.118Z,1.13
2023-03-08T14:39:49.565Z,2.78
2023-03-08T14:45:00.050Z,2.10
2023-03-08T14:50:23.039Z,1.73
2023-03-08T14:55:35.735Z,2.35
2023-03-08T15:00:51.508Z,2.25
2023-03-08T15:05:56.941Z,2.30
2023-03-08T15:11:00.644Z,2.38
2023-03-08T15:16:04.399Z,2.75
2023-03-08T15:21:08.044Z,2.70
2023-03-08T15:26:21.138Z,2.60
2023-03-08T15:31:25.000Z,2.83
2023-03-08T15:36:32.791Z,2.63
2023-03-08T15:41:36.359Z,2.60
2023-03-08T15:46:40.267Z,3.00
2023-03-08T15:51:44.076Z,3.40
2023-03-08T15:56:47.931Z,6.40
2023-03-08T16:01:51.581Z,8.40
2023-03-08T16:06:55.132Z,6.25
2023-03-08T16:11:58.652Z,4.88
2023-03-08T16:17:01.968Z,7.78
2023-03-08T16:22:05.826Z,8.13
2023-03-08T16:27:09.605Z,7.40
2023-03-08T16:32:15.859Z,7.07
2023-03-08T16:37:20.822Z,8.70
2023-03-08T16:42:24.813Z,9.65
2023-03-08T16:47:32.479Z,8.80
2023-03-08T16:52:36.101Z,8.35
2023-03-08T16:57:40.533Z,6.75
2023-03-08T17:02:45.402Z,6.88
2023-03-08T17:07:48.813Z,8.32
2023-03-08T17:12:52.118Z,7.22
2023-03-08T17:17:56.362Z,5.97
2023-03-08T17:23:01.878Z,6.25
2023-03-08T17:28:06.755Z,5.85
2023-03-08T17:33:12.976Z,5.88
2023-03-08T17:38:16.165Z,4.70
2023-03-08T17:43:20.289Z,5.82
2023-03-08T17:48:23.410Z,5.93
2023-03-08T17:53:26.587Z,5.47
2023-03-08T17:58:29.732Z,5.68
2023-03-08T18:03:34.506Z,4.57
2023-03-08T18:08:38.155Z,4.90
2023-03-08T18:13:41.840Z,5.28
2023-03-08T18:18:46.211Z,5.82
2023-03-08T18:23:49.796Z,6.47
2023-03-08T18:28:53.311Z,7.28
2023-03-08T18:33:57.418Z,6.97
2023-03-08T18:39:01.227Z,7.15
2023-03-08T18:44:05.152Z,8.73
2023-03-08T18:49:11.998Z,8.23
2023-03-08T18:54:21.098Z,8.85
2023-03-08T18:59:24.348Z,8.48
2023-03-08T19:04:27.973Z,10.30
2023-03-08T19:09:31.664Z,9.63
2023-03-08T19:14:34.869Z,9.10
2023-03-08T19:19:38.513Z,9.35
2023-03-08T19:24:42.213Z,10.38
2023-03-08T19:29:45.484Z,8.25
2023-03-08T19:40:17.561Z,10.45
2023-03-08T19:45:21.386Z,9.27
2023-03-08T19:50:25.398Z,10.23
2023-03-08T19:55:28.700Z,11.70
2023-03-08T20:00:32.522Z,11.82
2023-03-08T20:05:44.336Z,12.07
2023-03-08T20:10:49.671Z,9.75
2023-03-08T20:15:53.265Z,10.50
2023-03-08T20:20:59.184Z,11.55
2023-03-08T20:26:04.239Z,10.15
2023-03-08T20:31:13.245Z,7.55
2023-03-08T20:36:16.968Z,6.65
2023-03-08T20:41:21.755Z,8.70
2023-03-08T20:46:31.370Z,10.63
2023-03-08T20:51:36.658Z,12.20
2023-03-08T20:56:41.099Z,9.82
2023-03-08T21:01:46.007Z,8.90
2023-03-08T21:06:50.176Z,8.93
2023-03-08T21:11:54.174Z,9.90
2023-03-08T21:16:57.447Z,9.40
2023-03-08T21:22:01.473Z,10.65
2023-03-08T21:27:05.706Z,12.93
2023-03-08T21:32:09.727Z,11.48
2023-03-08T21:37:13.697Z,9.55
2023-03-08T21:42:17.349Z,10.25
2023-03-08T21:47:20.830Z,7.95
2023-03-08T21:52:23.903Z,7.88
2023-03-08T21:57:27.094Z,6.05
2023-03-08T22:02:31.634Z,6.63
2023-03-08T22:07:35.347Z,6.35
2023-03-08T22:12:38.968Z,5.70
2023-03-08T22:17:42.779Z,6.68
2023-03-08T22:22:46.419Z,5.55
2023-03-08T22:27:50.202Z,5.53
2023-03-08T22:32:55.129Z,4.35
2023-03-08T22:37:59.056Z,5.32
2023-03-08T22:43:02.685Z,6.10
2023-03-08T22:48:07.157Z,5.13
2023-03-08T22:53:10.905Z,4.72
2023-03-08T22:58:14.590Z,4.45
2023-03-08T23:03:17.809Z,5.15
2023-03-08T23:08:23.228Z,4.78
2023-03-08T23:13:33.999Z,5.50
2023-03-08T23:18:38.452Z,5.97
2023-03-08T23:23:42.268Z,4.82
2023-03-08T23:28:45.654Z,5.00
2023-03-08T23:33:50.425Z,4.30
2023-03-08T23:38:54.126Z,5.05
2023-03-08T23:44:00.573Z,5.22
2023-03-08T23:49:04.489Z,5.43
2023-03-08T23:54:07.688Z,4.97
2023-03-08T23:59:18.983Z,4.43
